Time;durP1;ratioP1;P1;durP2;ratioP2;P2;SDS_P1;SDS_P2;PMS_P1;PMS_P2;Temp;Humidity;BMP_temperature;BMP_pressure;BME280_temperature;BME280_humidity;BME280_pressure;Samples;Min_cycle;Max_cycle;Signal;HPM_P1;HPM_P2
2024/01/23 00:01:49;;;;;;;37.90;19.30;;;;;;;-144.30;89.44;86939.41;5093768;28;20203;-55
2024/01/23 00:04:16;;;;;;;45.10;20.50;;;;;;;-144.30;89.05;86913.56;5093727;28;20632;-54
2024/01/23 00:06:44;;;;;;;40.73;20.07;;;;;;;-144.30;89.86;86983.19;5093948;28;20213;-55
2024/01/23 00:09:11;;;;;;;44.30;22.57;;;;;;;-144.30;90.78;86915.56;5093408;28;20209;-56
2024/01/23 00:11:38;;;;;;;43.03;20.90;;;;;;;-144.30;90.57;86937.44;5093681;28;20195;-56
2024/01/23 00:14:05;;;;;;;49.53;22.93;;;;;;;-144.30;90.82;86911.56;5093518;28;20201;-55
2024/01/23 00:16:32;;;;;;;44.83;22.40;;;;;;;-144.30;90.80;86915.56;5093563;28;20199;-55
2024/01/23 00:18:59;;;;;;;49.37;21.37;;;;;;;-144.30;90.98;86903.63;5093265;28;20218;-55
2024/01/23 00:21:25;;;;;;;39.03;19.53;;;;;;;-144.30;91.60;86891.69;5093837;28;20574;-56
2024/01/23 00:23:54;;;;;;;39.20;17.47;;;;;;;-144.30;91.60;86895.66;5093644;28;20199;-55
2024/01/23 00:26:21;;;;;;;39.43;17.73;;;;;;;-144.30;91.77;86937.44;5093314;28;20209;-56
2024/01/23 00:28:48;;;;;;;36.73;17.23;;;;;;;-144.30;91.28;86929.47;5093147;28;20263;-56
2024/01/23 00:31:15;;;;;;;31.50;17.23;;;;;;;-144.30;90.76;86901.63;5093029;28;20218;-55
2024/01/23 00:33:42;;;;;;;50.03;18.47;;;;;;;-144.30;90.73;86933.44;5093146;28;20198;-59
2024/01/23 00:36:09;;;;;;;47.60;18.77;;;;;;;-144.30;91.06;86967.25;5093142;28;20195;-58
2024/01/23 00:38:36;;;;;;;35.90;18.23;;;;;;;-144.30;91.27;86933.44;5093263;28;20222;-58
2024/01/23 00:41:04;;;;;;;41.47;18.40;;;;;;;-144.30;90.86;86893.69;5093042;28;20191;-58
2024/01/23 00:43:31;;;;;;;39.63;17.93;;;;;;;-144.30;90.81;86911.56;5093124;28;20211;-58
2024/01/23 00:45:58;;;;;;;41.97;17.47;;;;;;;-144.30;90.87;86917.53;5093462;28;20651;-59
2024/01/23 00:48:25;;;;;;;40.03;18.67;;;;;;;-144.30;91.36;86975.22;5093395;28;20195;-59
2024/01/23 00:50:52;;;;;;;45.27;19.00;;;;;;;-144.30;91.99;86929.47;5092970;28;20555;-59
2024/01/23 00:53:19;;;;;;;37.90;17.70;;;;;;;-144.30;92.20;86895.66;5092735;28;20199;-59
2024/01/23 00:55:47;;;;;;;46.63;19.43;;;;;;;-144.30;91.81;86935.44;5092803;28;20499;-59
2024/01/23 00:58:15;;;;;;;60.13;19.43;;;;;;;-144.30;91.61;86919.53;5092533;28;20223;-59
2024/01/23 01:00:44;;;;;;;48.37;19.53;;;;;;;-144.30;91.48;86925.50;5092764;28;20214;-58
2024/01/23 01:03:11;;;;;;;45.77;18.67;;;;;;;-144.30;92.61;86935.44;5092536;28;20290;-59
2024/01/23 01:05:38;;;;;;;43.20;19.30;;;;;;;-144.30;92.82;86923.50;5092916;28;20698;-59
2024/01/23 01:08:06;;;;;;;46.93;18.93;;;;;;;-144.30;92.78;86949.38;5091923;28;20202;-59
2024/01/23 01:10:33;;;;;;;36.07;17.27;;;;;;;-144.30;92.85;86957.31;5092610;28;20195;-56
2024/01/23 01:13:00;;;;;;;36.13;16.97;;;;;;;-144.30;92.35;86925.50;5092329;28;20588;-55
2024/01/23 01:15:28;;;;;;;33.93;17.50;;;;;;;-144.30;92.17;86969.25;5092849;28;20199;-55
2024/01/23 01:17:55;;;;;;;33.77;16.60;;;;;;;-144.30;92.63;86937.44;5091507;28;20223;-55
2024/01/23 01:20:22;;;;;;;32.57;16.07;;;;;;;-144.30;92.67;86937.44;5092117;28;20593;-55
2024/01/23 01:22:49;;;;;;;36.43;16.97;;;;;;;-144.30;92.41;86947.38;5092267;28;20218;-55
2024/01/23 01:25:16;;;;;;;36.17;17.00;;;;;;;-144.30;91.96;86919.53;5092036;28;20568;-55
2024/01/23 01:27:42;;;;;;;36.10;16.77;;;;;;;-144.30;91.64;86925.50;5092003;28;20232;-56
2024/01/23 01:30:10;;;;;;;39.60;17.40;;;;;;;-144.30;91.44;86951.34;5091974;28;20191;-55
2024/01/23 01:32:38;;;;;;;39.40;17.13;;;;;;;-144.30;91.93;86941.41;5092099;28;20195;-56
2024/01/23 01:35:06;;;;;;;37.23;17.87;;;;;;;-144.30;91.71;86923.50;5091982;28;20222;-56
2024/01/23 01:37:33;;;;;;;33.73;16.70;;;;;;;-144.30;91.60;86959.31;5092036;28;20228;-58
2024/01/23 01:40:00;;;;;;;39.63;16.33;;;;;;;-144.30;91.20;86937.44;5091875;28;20291;-59
2024/01/23 01:42:27;;;;;;;30.20;15.10;;;;;;;-144.30;90.79;86965.28;5092218;28;20198;-59
2024/01/23 01:44:54;;;;;;;27.37;13.77;;;;;;;-144.30;90.70;86943.41;5092207;28;20647;-58
2024/01/23 01:47:21;;;;;;;31.00;14.97;;;;;;;-144.30;90.60;86923.50;5091980;28;20214;-59
2024/01/23 01:49:50;;;;;;;30.67;15.67;;;;;;;-144.30;90.53;86929.47;5091758;28;20195;-58
2024/01/23 01:52:17;;;;;;;37.73;14.93;;;;;;;-144.30;90.51;86931.47;5092158;28;20245;-58
2024/01/23 01:54:46;;;;;;;29.60;14.97;;;;;;;-144.30;90.12;86947.38;5091893;28;20553;-58
2024/01/23 01:57:14;;;;;;;25.60;13.73;;;;;;;-144.30;89.93;86925.50;5091703;28;20205;-57
2024/01/23 01:59:41;;;;;;;26.87;13.13;;;;;;;-144.30;89.78;86961.28;5091445;28;20196;-58
2024/01/23 02:02:08;;;;;;;22.10;12.17;;;;;;;-144.30;89.93;86983.19;5091519;28;20195;-58
2024/01/23 02:04:35;;;;;;;29.27;12.50;;;;;;;-144.30;90.28;86947.38;5091697;28;20286;-58
2024/01/23 02:07:04;;;;;;;26.70;13.47;;;;;;;-144.30;90.34;86895.66;5091140;28;20206;-56
2024/01/23 02:09:31;;;;;;;24.93;12.37;;;;;;;-144.30;90.08;86935.44;5091542;28;20196;-56
2024/01/23 02:11:59;;;;;;;25.17;13.27;;;;;;;-144.30;89.49;86941.41;5091540;28;20195;-58
2024/01/23 02:14:26;;;;;;;22.57;12.63;;;;;;;-144.30;89.25;86951.34;5091352;28;20237;-59
2024/01/23 02:16:54;;;;;;;26.17;12.53;;;;;;;-144.30;89.27;86939.41;5091282;28;20291;-57
2024/01/23 02:19:20;;;;;;;27.50;12.97;;;;;;;-144.30;89.54;86913.56;5090237;28;20639;-57
2024/01/23 02:21:47;;;;;;;22.97;11.77;;;;;;;-144.30;89.41;86945.38;5091007;28;20202;-59
2024/01/23 02:24:16;;;;;;;31.93;13.80;;;;;;;-144.30;88.86;86961.28;5091217;28;20698;-58
2024/01/23 02:26:42;;;;;;;27.50;14.63;;;;;;;-144.30;89.04;86943.41;5090941;28;20211;-58
2024/01/23 02:29:10;;;;;;;27.77;13.23;;;;;;;-144.30;88.92;86911.56;5090983;28;20217;-58
2024/01/23 02:31:37;;;;;;;27.80;13.40;;;;;;;-144.30;89.31;86961.28;5091014;28;20221;-58
2024/01/23 02:34:04;;;;;;;33.83;13.77;;;;;;;-144.30;89.83;86921.53;5090748;28;20217;-58
2024/01/23 02:36:34;;;;;;;29.80;14.37;;;;;;;-144.30;89.94;86943.41;5091037;28;20209;-58
2024/01/23 02:39:02;;;;;;;22.23;12.63;;;;;;;-144.30;89.83;86969.25;5090970;28;20231;-59
2024/01/23 02:41:30;;;;;;;30.93;15.10;;;;;;;-144.30;89.30;86917.53;5090996;28;20191;-58
2024/01/23 02:43:57;;;;;;;25.87;13.00;;;;;;;-144.30;88.98;86935.44;5091065;28;20199;-58
2024/01/23 02:46:24;;;;;;;25.03;12.60;;;;;;;-144.30;88.73;86931.47;5090644;28;20202;-58
2024/01/23 02:48:51;;;;;;;35.90;14.33;;;;;;;-144.30;89.18;86969.25;5090616;28;20661;-58
2024/01/23 02:51:19;;;;;;;34.10;14.73;;;;;;;-144.30;89.52;86935.44;5090735;28;20195;-58
2024/01/23 02:53:46;;;;;;;27.10;14.10;;;;;;;-144.30;89.51;86933.44;5090901;28;20199;-58
2024/01/23 02:56:13;;;;;;;27.10;14.03;;;;;;;-144.30;89.56;86893.69;5090440;28;20294;-59
2024/01/23 02:58:42;;;;;;;26.47;12.90;;;;;;;-144.30;89.38;86907.59;5090691;28;20711;-59
2024/01/23 03:01:09;;;;;;;31.37;13.30;;;;;;;-144.30;89.80;86939.41;5090342;28;20308;-59
2024/01/23 03:03:36;;;;;;;23.20;12.87;;;;;;;-144.30;89.99;86919.53;5090893;28;20198;-59
2024/01/23 03:06:03;;;;;;;26.47;12.97;;;;;;;-144.30;89.90;86925.50;5090473;28;20233;-57
2024/01/23 03:08:30;;;;;;;24.33;13.63;;;;;;;-144.30;89.60;86684.84;5090734;28;20230;-56
2024/01/23 03:10:57;;;;;;;24.37;12.00;;;;;;;-144.30;89.36;86971.25;5090340;28;20195;-56
2024/01/23 03:13:24;;;;;;;26.33;11.53;;;;;;;-144.30;88.78;86951.34;5090333;28;20668;-56
2024/01/23 03:15:53;;;;;;;26.33;11.40;;;;;;;-144.30;89.08;86923.50;5090162;28;20587;-59
2024/01/23 03:18:20;;;;;;;26.50;13.30;;;;;;;-144.30;89.54;86899.66;5090041;28;20231;-59
2024/01/23 03:20:47;;;;;;;31.33;12.53;;;;;;;-144.30;89.29;86937.44;5090378;28;20221;-59
2024/01/23 03:23:14;;;;;;;30.93;13.60;;;;;;;-144.30;88.23;86895.66;5090299;28;20589;-59
2024/01/23 03:25:41;;;;;;;26.83;13.87;;;;;;;-144.30;88.31;86889.69;5090353;28;20417;-59
2024/01/23 03:28:08;;;;;;;30.33;13.83;;;;;;;-144.30;88.59;86939.41;5090132;28;20228;-59
2024/01/23 03:30:35;;;;;;;35.30;13.83;;;;;;;-144.30;89.30;86921.53;5089806;28;20554;-59
2024/01/23 03:33:03;;;;;;;30.70;14.23;;;;;;;-144.30;90.36;86951.34;5089937;28;20197;-59
2024/01/23 03:35:31;;;;;;;24.73;13.40;;;;;;;-144.30;90.15;86925.50;5090149;28;20210;-59
2024/01/23 03:37:58;;;;;;;29.77;13.20;;;;;;;-144.30;89.76;86907.59;5090057;28;20670;-58
2024/01/23 03:40:25;;;;;;;29.53;14.03;;;;;;;-144.30;89.61;86959.31;5079878;28;20197;-58
2024/01/23 03:42:52;;;;;;;31.83;14.80;;;;;;;-144.30;90.00;86899.66;5069693;28;20198;-59
2024/01/23 03:45:19;;;;;;;33.67;13.80;;;;;;;-144.30;90.92;86927.47;5069914;28;20207;-59
2024/01/23 03:47:46;;;;;;;28.47;12.53;;;;;;;-144.30;91.30;86923.50;5069995;28;20200;-59
2024/01/23 03:50:14;;;;;;;31.10;13.10;;;;;;;-144.30;90.46;86963.28;5069869;28;20283;-58
2024/01/23 03:52:41;;;;;;;28.67;13.47;;;;;;;-144.30;90.12;86921.53;5070007;28;20201;-59
2024/01/23 03:55:08;;;;;;;27.97;14.40;;;;;;;-144.30;90.19;86939.41;5069703;28;20291;-59
2024/01/23 03:57:35;;;;;;;32.00;14.40;;;;;;;-144.30;90.26;86907.59;5069550;28;20205;-59
2024/01/23 04:00:03;;;;;;;28.23;13.40;;;;;;;-144.30;90.81;86903.63;5069408;28;20222;-59
2024/01/23 04:02:31;;;;;;;28.87;14.13;;;;;;;-144.30;91.15;86927.47;5069574;28;20638;-56
2024/01/23 04:04:58;;;;;;;30.27;14.93;;;;;;;-144.30;91.38;86943.41;5069577;28;20237;-56
2024/01/23 04:07:28;;;;;;;29.20;13.73;;;;;;;-144.30;91.55;86971.25;5069390;28;20195;-56
2024/01/23 04:09:55;;;;;;;36.63;14.97;;;;;;;-144.30;91.34;86929.47;5069375;28;20644;-55
2024/01/23 04:12:22;;;;;;;29.37;12.77;;;;;;;-144.30;91.45;86947.38;5069543;28;20214;-55
2024/01/23 04:14:49;;;;;;;36.80;14.10;;;;;;;-144.30;91.13;86939.41;5069781;28;20194;-56
2024/01/23 04:17:17;;;;;;;31.17;14.70;;;;;;;-144.30;91.16;86919.53;5069262;28;20281;-55
2024/01/23 04:19:44;;;;;;;33.43;14.73;;;;;;;-144.30;91.17;86941.41;5069340;28;20233;-58
2024/01/23 04:22:11;;;;;;;33.50;14.67;;;;;;;-144.30;91.14;86931.47;5069492;28;20356;-55
2024/01/23 04:24:40;;;;;;;29.67;15.40;;;;;;;-144.30;91.31;86947.38;5068453;28;20593;-56
2024/01/23 04:27:07;;;;;;;36.73;14.60;;;;;;;-144.30;91.21;86895.66;5068385;28;20314;-55
2024/01/23 04:29:34;;;;;;;29.90;14.43;;;;;;;-144.30;91.20;86925.50;5068933;28;20689;-55
2024/01/23 04:32:01;;;;;;;27.97;14.07;;;;;;;-144.30;91.32;86929.47;5068691;28;20197;-56
2024/01/23 04:34:28;;;;;;;27.30;12.90;;;;;;;-144.30;91.04;86915.56;5068823;28;20196;-55
2024/01/23 04:36:55;;;;;;;27.67;14.17;;;;;;;-144.30;90.81;86941.41;5068861;28;20196;-59
2024/01/23 04:39:22;;;;;;;23.60;12.17;;;;;;;-144.30;90.51;86923.50;5064886;28;20220;-59
2024/01/23 04:41:50;;;;;;;26.87;13.37;;;;;;;-144.30;90.47;86919.53;5049209;28;20215;-60
2024/01/23 04:44:17;;;;;;;29.83;12.93;;;;;;;-144.30;90.66;86889.69;5052040;28;20194;-60
2024/01/23 04:46:45;;;;;;;27.40;12.60;;;;;;;-144.30;90.29;86943.41;5053019;28;20210;-61
2024/01/23 04:49:12;;;;;;;21.10;11.13;;;;;;;-144.30;90.57;86887.72;5052866;28;20195;-55
2024/01/23 04:51:39;;;;;;;32.87;12.37;;;;;;;-144.30;90.44;86939.41;5052652;28;20688;-61
2024/01/23 04:54:06;;;;;;;26.77;13.30;;;;;;;-144.30;90.46;86915.56;5067161;28;20573;-60
2024/01/23 04:56:32;;;;;;;26.53;13.43;;;;;;;-144.30;90.64;86903.63;5072382;28;20194;-60
2024/01/23 04:59:01;;;;;;;24.57;12.33;;;;;;;-144.30;90.46;86895.66;5052581;28;20219;-59
2024/01/23 05:01:28;;;;;;;24.90;11.90;;;;;;;-144.30;89.95;86969.25;5063372;28;20203;-60
2024/01/23 05:03:55;;;;;;;24.00;11.50;;;;;;;-144.30;89.53;86959.31;5072193;28;20233;-59
2024/01/23 05:06:21;;;;;;;25.30;12.57;;;;;;;-144.30;89.29;86921.53;5072108;28;20192;-56
2024/01/23 05:08:48;;;;;;;22.20;11.70;;;;;;;-144.30;89.44;86933.44;5071517;28;20196;-56
2024/01/23 05:11:15;;;;;;;23.10;12.30;;;;;;;-144.30;90.27;86923.50;5071243;28;20581;-56
2024/01/23 05:13:43;;;;;;;21.43;12.37;;;;;;;-144.30;90.76;86836.00;5065952;28;20219;-56
2024/01/23 05:16:11;;;;;;;27.73;13.73;;;;;;;-144.30;90.87;86927.47;5063977;28;20218;-60
2024/01/23 05:18:37;;;;;;;27.07;13.27;;;;;;;-144.30;91.02;86927.47;5053550;28;20712;-60
2024/01/23 05:21:04;;;;;;;24.67;12.50;;;;;;;-144.30;91.09;86720.66;5067661;28;20227;-62
2024/01/23 05:23:31;;;;;;;23.97;12.97;;;;;;;-144.30;91.51;86961.28;5071840;28;20657;-61
2024/01/23 05:25:58;;;;;;;24.37;12.70;;;;;;;-144.30;92.06;86937.44;5064456;28;20205;-62
2024/01/23 05:28:25;;;;;;;26.43;13.37;;;;;;;-144.30;92.49;86875.78;5065503;28;20228;-62
2024/01/23 05:30:52;;;;;;;26.47;12.33;;;;;;;-144.30;92.50;86907.59;5061033;28;20188;-58
2024/01/23 05:33:20;;;;;;;26.47;12.37;;;;;;;-144.30;92.19;86935.44;5051469;28;20205;-58
2024/01/23 05:35:47;;;;;;;30.63;13.40;;;;;;;-144.30;91.09;86951.34;5051827;28;20194;-58
2024/01/23 05:38:14;;;;;;;32.43;12.53;;;;;;;-144.30;90.46;86935.44;5083257;28;20202;-62
2024/01/23 05:40:41;;;;;;;22.80;11.80;;;;;;;-144.30;90.18;86937.44;5091834;28;20724;-57
2024/01/23 05:43:07;;;;;;;29.60;13.00;;;;;;;-144.30;89.94;86981.19;5091383;28;20678;-63
2024/01/23 05:45:34;;;;;;;23.23;12.47;;;;;;;-144.30;90.43;86929.47;5092067;28;20700;-63
2024/01/23 05:48:01;;;;;;;22.40;12.50;;;;;;;-144.30;90.44;86931.47;5091912;28;20292;-63
2024/01/23 05:50:30;;;;;;;25.57;12.33;;;;;;;-144.30;90.82;86941.41;5092054;28;20197;-63
2024/01/23 05:52:57;;;;;;;23.27;13.17;;;;;;;-144.30;90.34;86927.47;5091841;28;20192;-63
2024/01/23 05:55:24;;;;;;;23.90;12.67;;;;;;;-144.30;91.04;86907.59;5091396;28;20203;-63
2024/01/23 05:57:51;;;;;;;29.73;13.33;;;;;;;-144.30;91.12;86931.47;5091672;28;20202;-62
2024/01/23 06:00:18;;;;;;;24.23;12.77;;;;;;;-144.30;90.61;87396.88;5091658;28;20599;-56
2024/01/23 06:02:45;;;;;;;30.53;13.47;;;;;;;-144.30;90.02;86889.69;5091706;28;20655;-56
2024/01/23 06:05:12;;;;;;;18.73;11.67;;;;;;;-144.30;89.93;86943.41;5055989;28;20195;-55
2024/01/23 06:07:43;;;;;;;26.33;12.77;;;;;;;-144.30;90.13;86891.69;5051277;28;20201;-56
2024/01/23 06:10:10;;;;;;;24.27;11.77;;;;;;;-144.30;90.09;86838.00;5051168;28;20225;-56
2024/01/23 06:12:37;;;;;;;28.37;12.63;;;;;;;-144.30;89.46;86921.53;5050754;28;20191;-56
2024/01/23 06:15:05;;;;;;;18.77;11.37;;;;;;;-144.30;89.24;86897.66;5050855;28;20262;-56
2024/01/23 06:17:32;;;;;;;27.43;11.87;;;;;;;-144.30;88.91;86911.56;5051227;28;20195;-56
2024/01/23 06:20:01;;;;;;;27.73;12.63;;;;;;;-144.30;88.93;86935.44;5050751;28;20227;-56
2024/01/23 06:22:28;;;;;;;26.00;11.43;;;;;;;-144.30;89.02;86792.25;5050857;28;20616;-56
2024/01/23 06:25:03;;;;;;;44.87;14.00;;;;;;;-144.30;88.73;86935.44;5050674;28;20295;-57
2024/01/23 06:27:30;;;;;;;47.03;15.17;;;;;;;-144.30;87.44;86915.56;5050541;28;20224;-56
2024/01/23 06:29:57;;;;;;;36.57;14.27;;;;;;;-144.30;86.75;86947.38;5051021;28;20656;-63
2024/01/23 06:32:24;;;;;;;27.80;12.33;;;;;;;-144.30;87.50;86945.38;5050526;28;20210;-63
2024/01/23 06:34:51;;;;;;;48.77;16.37;;;;;;;-144.30;88.05;86943.41;5050686;28;20261;-63
2024/01/23 06:37:19;;;;;;;31.80;12.53;;;;;;;-144.30;87.92;86917.53;5051008;28;20200;-63
2024/01/23 06:39:46;;;;;;;39.50;14.60;;;;;;;-144.30;86.71;86935.44;5053296;28;20226;-63
2024/01/23 06:42:14;;;;;;;25.13;11.27;;;;;;;-144.30;86.83;86925.50;5060920;28;20283;-64
2024/01/23 06:44:41;;;;;;;50.30;13.17;;;;;;;-144.30;86.62;86923.50;5057574;28;20194;-63
2024/01/23 06:47:08;;;;;;;23.53;11.57;;;;;;;-144.30;86.63;86939.41;5057386;28;20204;-64
2024/01/23 06:49:35;;;;;;;40.57;12.40;;;;;;;-144.30;86.13;86941.41;5070299;28;20295;-64
2024/01/23 06:52:02;;;;;;;30.73;11.40;;;;;;;-144.30;86.31;86939.41;5070169;28;20229;-64
2024/01/23 06:54:29;;;;;;;21.10;10.80;;;;;;;-144.30;85.88;86961.28;5056938;28;20597;-57
2024/01/23 06:56:56;;;;;;;28.63;10.23;;;;;;;-144.30;85.55;86965.28;5069786;28;20591;-57
2024/01/23 06:59:24;;;;;;;24.67;10.27;;;;;;;-144.30;85.21;86937.44;5053243;28;20593;-56
2024/01/23 07:01:51;;;;;;;35.50;10.40;;;;;;;-144.30;85.11;86903.63;5084377;28;20207;-57
2024/01/23 07:04:18;;;;;;;56.30;13.10;;;;;;;-144.30;85.03;86911.56;5089503;28;20226;-55
2024/01/23 07:06:45;;;;;;;76.43;13.73;;;;;;;-144.30;85.03;86853.91;5089118;28;20209;-56
2024/01/23 07:09:12;;;;;;;24.43;11.03;;;;;;;-144.30;84.50;86927.47;5090057;28;20191;-55
2024/01/23 07:11:40;;;;;;;30.70;10.63;;;;;;;-144.30;84.26;86919.53;5090112;28;20294;-55
2024/01/23 07:14:07;;;;;;;28.77;11.50;;;;;;;-144.30;84.43;86951.34;5089832;28;20197;-55
2024/01/23 07:16:35;;;;;;;19.83;10.10;;;;;;;-144.30;84.58;86919.53;5090339;28;20713;-61
2024/01/23 07:19:02;;;;;;;32.23;11.87;;;;;;;-144.30;85.10;86905.59;5090598;28;20689;-63
2024/01/23 07:21:30;;;;;;;22.73;11.40;;;;;;;-144.30;85.49;86921.53;5082493;28;20193;-62
2024/01/23 07:23:56;;;;;;;17.50;10.70;;;;;;;-144.30;85.48;86911.56;5069538;28;20199;-64
2024/01/23 07:26:23;;;;;;;21.60;11.30;;;;;;;-144.30;85.14;86939.41;5069840;28;20210;-63
2024/01/23 07:28:51;;;;;;;24.50;11.33;;;;;;;-144.30;84.94;86947.38;5069748;28;20228;-63
2024/01/23 07:31:18;;;;;;;20.67;10.10;;;;;;;-144.30;84.94;86923.50;5069901;28;20204;-64
2024/01/23 07:33:47;;;;;;;24.50;10.57;;;;;;;-144.30;84.79;86927.47;5065770;28;20203;-63
2024/01/23 07:36:14;;;;;;;21.17;10.00;;;;;;;-144.30;84.59;86937.44;5069526;28;20695;-55
2024/01/23 07:38:40;;;;;;;22.33;10.00;;;;;;;-144.30;83.89;86947.38;5069855;28;20672;-55
2024/01/23 07:41:07;;;;;;;22.93;9.60;;;;;;;-144.30;83.52;86947.38;5069686;28;20220;-55
2024/01/23 07:43:35;;;;;;;24.30;10.33;;;;;;;-144.30;83.54;86927.47;5069717;28;20234;-57
2024/01/23 07:46:02;;;;;;;17.00;9.40;;;;;;;-144.30;83.66;86931.47;5069436;28;20287;-54
2024/01/23 07:48:29;;;;;;;19.00;11.20;;;;;;;-144.30;83.34;86919.53;5069551;28;20197;-55
2024/01/23 07:50:57;;;;;;;28.33;12.70;;;;;;;-144.30;83.46;86913.56;5069503;28;20652;-56
2024/01/23 07:53:24;;;;;;;22.70;12.17;;;;;;;-144.30;84.07;86957.31;5069739;28;20214;-56
2024/01/23 07:55:52;;;;;;;19.33;11.97;;;;;;;-144.30;83.60;86941.41;5069946;28;20592;-63
2024/01/23 07:58:19;;;;;;;26.83;15.03;;;;;;;-144.30;82.87;86891.69;5065163;28;20207;-63
2024/01/23 08:00:45;;;;;;;22.70;13.33;;;;;;;-144.30;82.61;86959.31;5088506;28;20223;-63
2024/01/23 08:03:12;;;;;;;31.20;14.73;;;;;;;-144.30;82.45;86919.53;5089544;28;20202;-62
2024/01/23 08:05:40;;;;;;;29.37;14.13;;;;;;;-144.30;82.45;86911.56;5089550;28;20703;-62
2024/01/23 08:08:09;;;;;;;29.90;13.93;;;;;;;-144.30;82.61;86923.50;5089755;28;20195;-63
2024/01/23 08:10:36;;;;;;;28.17;13.50;;;;;;;-144.30;82.58;86957.31;5089544;28;20199;-63
2024/01/23 08:13:03;;;;;;;25.30;12.83;;;;;;;-144.30;82.57;86903.63;5084872;28;20207;-54
2024/01/23 08:15:34;;;;;;;28.93;13.13;;;;;;;-144.30;81.90;86873.78;5069087;28;20205;-54
2024/01/23 08:18:03;;;;;;;23.73;13.27;;;;;;;-144.30;82.48;86923.50;5070155;28;20306;-62
2024/01/23 08:20:30;;;;;;;20.93;12.20;;;;;;;-144.30;82.41;86903.63;5071923;28;20255;-62
2024/01/23 08:22:57;;;;;;;25.53;14.47;;;;;;;-144.30;81.96;86891.69;5069929;28;20200;-62
2024/01/23 08:25:25;;;;;;;24.37;13.60;;;;;;;-144.30;82.15;86919.53;5073169;28;20201;-62
2024/01/23 08:27:52;;;;;;;28.60;12.50;;;;;;;-144.30;81.55;86891.69;5073059;28;20224;-53
2024/01/23 08:30:19;;;;;;;22.87;11.57;;;;;;;-144.30;81.71;86895.66;5072982;28;20197;-54
2024/01/23 08:32:46;;;;;;;24.90;11.87;;;;;;;-144.30;81.01;86909.59;5073290;28;20566;-62
2024/01/23 08:35:15;;;;;;;16.43;8.83;;;;;;;-144.30;80.30;86913.56;5072890;28;20664;-58
2024/01/23 08:37:42;;;;;;;18.73;8.93;;;;;;;-144.30;78.83;86893.69;5072901;28;20564;-58
2024/01/23 08:40:10;;;;;;;13.80;8.73;;;;;;;-144.30;78.98;86877.75;5072756;28;20307;-57
2024/01/23 08:42:39;;;;;;;19.10;9.53;;;;;;;-144.30;79.07;86921.53;5072651;28;20669;-52
2024/01/23 08:45:08;;;;;;;14.03;8.50;;;;;;;-144.30;78.67;86871.81;5072471;28;20233;-53
2024/01/23 08:47:35;;;;;;;17.07;9.03;;;;;;;-144.30;79.34;86907.59;5072519;28;20200;-59
2024/01/23 08:50:03;;;;;;;23.70;10.53;;;;;;;-144.30;79.41;86879.75;5072543;28;20279;-58
2024/01/23 08:52:30;;;;;;;29.10;11.13;;;;;;;-144.30;78.93;86855.88;5072484;28;20611;-58
2024/01/23 08:54:57;;;;;;;19.50;10.53;;;;;;;-144.30;79.02;86877.75;5072385;28;20194;-52
2024/01/23 08:57:25;;;;;;;17.47;9.83;;;;;;;-144.30;79.08;86855.88;5072571;28;20223;-52
2024/01/23 08:59:53;;;;;;;21.20;10.07;;;;;;;-144.30;79.43;86903.63;5072239;28;20366;-52
2024/01/23 09:02:21;;;;;;;18.67;9.60;;;;;;;-144.30;80.89;86919.53;5067121;28;20677;-59
2024/01/23 09:04:50;;;;;;;21.00;9.97;;;;;;;-144.30;80.87;86879.75;5070276;28;20208;-51
2024/01/23 09:07:18;;;;;;;20.50;9.40;;;;;;;-144.30;80.68;86893.69;5059496;28;20222;-51
2024/01/23 09:09:45;;;;;;;11.87;8.20;;;;;;;-144.30;79.68;86875.78;5059110;28;20238;-52
2024/01/23 09:12:12;;;;;;;18.17;9.70;;;;;;;-144.30;78.78;86887.72;5071552;28;20213;-52
2024/01/23 09:14:39;;;;;;;18.17;9.53;;;;;;;-144.30;78.23;86857.88;5071078;28;20210;-52
2024/01/23 09:17:07;;;;;;;21.33;9.57;;;;;;;-144.30;78.05;86855.88;5092161;28;20202;-57
2024/01/23 09:19:34;;;;;;;16.93;9.67;;;;;;;-144.30;77.41;86909.59;5091347;28;20199;-56
2024/01/23 09:22:01;;;;;;;17.60;10.23;;;;;;;-144.30;77.02;86883.72;5091374;28;20263;-58
2024/01/23 09:24:28;;;;;;;18.60;10.37;;;;;;;-144.30;77.29;86881.75;5068896;28;20188;-57
2024/01/23 09:26:59;;;;;;;14.70;9.70;;;;;;;-144.30;77.07;86895.66;5070655;28;20200;-57
2024/01/23 09:29:26;;;;;;;18.60;9.63;;;;;;;-144.30;77.53;86865.84;5063902;28;20258;-56
2024/01/23 09:31:53;;;;;;;20.80;9.40;;;;;;;-144.30;77.60;86867.81;5069083;28;20192;-57
2024/01/23 09:34:21;;;;;;;17.60;10.70;;;;;;;-144.30;77.94;86871.81;5060443;28;20203;-54
2024/01/23 09:36:48;;;;;;;16.63;9.97;;;;;;;-144.30;77.53;86871.81;5071876;28;20676;-53
2024/01/23 09:39:16;;;;;;;20.57;11.87;;;;;;;-144.30;77.37;86871.81;5071610;28;20199;-55
2024/01/23 09:41:46;;;;;;;23.20;11.30;;;;;;;-144.30;77.92;86867.81;5071694;28;20223;-55
2024/01/23 09:44:14;;;;;;;25.70;10.80;;;;;;;-144.30;77.17;86836.00;5071452;28;20202;-55
2024/01/23 09:46:43;;;;;;;23.10;10.57;;;;;;;-144.30;77.19;86875.78;5071571;28;20225;-54
2024/01/23 09:49:11;;;;;;;18.90;10.53;;;;;;;-144.30;77.01;86684.84;5071633;28;20228;-59
2024/01/23 09:51:41;;;;;;;16.73;10.90;;;;;;;-144.30;77.00;86875.78;5071514;28;20196;-58
2024/01/23 09:54:10;;;;;;;21.57;11.23;;;;;;;-144.30;76.42;86879.75;5071622;28;20205;-59
2024/01/23 09:56:38;;;;;;;22.93;11.17;;;;;;;-144.30;76.96;86871.81;5072005;28;20211;-59
2024/01/23 09:59:05;;;;;;;20.87;11.30;;;;;;;-144.30;76.24;86877.75;5071818;28;20249;-58
2024/01/23 10:01:33;;;;;;;18.70;10.60;;;;;;;-144.30;76.78;86855.88;5071474;28;20222;-58
2024/01/23 10:04:00;;;;;;;18.50;10.77;;;;;;;-144.30;76.73;86826.06;5071713;28;20287;-59
2024/01/23 10:06:27;;;;;;;18.03;10.27;;;;;;;-144.30;77.26;86853.91;5071270;28;20199;-57
2024/01/23 10:08:55;;;;;;;17.77;10.43;;;;;;;-144.30;77.64;86847.94;5071488;28;20211;-58
2024/01/23 10:11:22;;;;;;;18.77;10.23;;;;;;;-144.30;76.95;86820.09;5071266;28;20203;-58
2024/01/23 10:13:49;;;;;;;19.47;9.73;;;;;;;-144.30;77.32;86877.75;5071430;28;20196;-57
2024/01/23 10:16:16;;;;;;;17.57;9.23;;;;;;;-144.30;76.03;86865.84;5070993;28;20204;-58
2024/01/23 10:18:47;;;;;;;17.53;9.17;;;;;;;-144.30;76.41;86853.91;5071434;28;20258;-57
2024/01/23 10:21:15;;;;;;;15.23;9.70;;;;;;;-144.30;76.13;86869.81;5069926;28;20243;-58
2024/01/23 10:23:42;;;;;;;13.70;9.10;;;;;;;-144.30;76.02;86832.03;5083644;28;20214;-51
2024/01/23 10:26:11;;;;;;;18.83;9.57;;;;;;;-144.30;76.05;86839.97;5090831;28;20205;-52
2024/01/23 10:28:38;;;;;;;19.30;9.80;;;;;;;-144.30;75.81;86853.91;5087991;28;20223;-53
2024/01/23 10:31:05;;;;;;;15.20;9.43;;;;;;;-144.30;75.50;86816.13;5070167;28;20672;-53
2024/01/23 10:33:32;;;;;;;13.37;8.97;;;;;;;-144.30;75.50;86834.00;5052469;28;20208;-53
2024/01/23 10:36:01;;;;;;;13.30;8.47;;;;;;;-144.30;75.06;86834.00;5050724;28;20710;-52
2024/01/23 10:38:32;;;;;;;14.60;9.07;;;;;;;-144.30;73.49;86816.13;5050590;28;20283;-53
2024/01/23 10:41:01;;;;;;;15.63;8.07;;;;;;;-144.30;73.85;86830.03;5049614;28;20317;-53
2024/01/23 10:43:30;;;;;;;11.37;7.93;;;;;;;-144.30;73.24;86867.81;5050383;28;20648;-52
2024/01/23 10:45:59;;;;;;;22.03;8.77;;;;;;;-144.30;73.16;86810.16;5050017;28;20284;-53
2024/01/23 10:48:26;;;;;;;14.40;9.40;;;;;;;-144.30;73.03;86836.00;5050128;28;20201;-53
2024/01/23 10:50:57;;;;;;;19.80;10.90;;;;;;;-144.30;72.87;86824.06;5050119;28;20291;-54
2024/01/23 10:53:34;;;;;;;21.20;10.43;;;;;;;-144.30;72.88;86790.25;5050158;28;20200;-54
2024/01/23 10:56:02;;;;;;;147.10;71.23;;;;;;;-144.30;72.32;86845.94;5050294;28;20201;-54
2024/01/23 10:58:36;;;;;;;35.20;17.60;;;;;;;-144.30;72.60;86814.13;5049987;28;20212;-53
2024/01/23 11:01:08;;;;;;;15.57;11.00;;;;;;;-144.30;72.40;86816.13;5050255;28;20227;-54
2024/01/23 11:03:36;;;;;;;17.03;10.27;;;;;;;-144.30;72.51;86788.28;5050188;28;20244;-55